Time;durP1;ratioP1;P1;durP2;ratioP2;P2;SDS_P1;SDS_P2;PMS_P1;PMS_P2;Temp;Humidity;BMP_temperature;BMP_pressure;BME280_temperature;BME280_humidity;BME280_pressure;Samples;Min_cycle;Max_cycle;Signal;HPM_P1;HPM_P2
2021/12/05 00:22:16;;;;;;;2.40;1.00;;;6.60;52.10;;;;;;5008845;28;20249;-49
2021/12/05 00:24:49;;;;;;;2.72;2.22;;;6.60;51.90;;;;;;5007352;28;20165;-49
2021/12/05 00:27:20;;;;;;;2.50;1.42;;;6.60;52.40;;;;;;4988211;28;20205;-49
2021/12/05 00:29:59;;;;;;;4.05;3.05;;;6.50;51.90;;;;;;4988130;28;20667;-49
2021/12/05 00:46:58;;;;;;;1.42;1.00;;;6.70;51.70;;;;;;4976041;28;20186;-49
2021/12/05 00:50:31;;;;;;;3.55;2.25;;;6.70;51.50;;;;;;4959788;28;20251;-49
2021/12/05 01:00:38;;;;;;;2.58;0.95;;;7.00;50.90;;;;;;4975873;28;20501;-49
2021/12/05 01:11:16;;;;;;;4.03;1.88;;;7.10;50.80;;;;;;4972941;28;20328;-49
2021/12/05 01:14:06;;;;;;;2.40;1.98;;;7.10;50.70;;;;;;5036251;28;20197;-50
2021/12/05 01:16:34;;;;;;;2.63;2.42;;;7.10;50.70;;;;;;5035913;28;20159;-49
2021/12/05 01:19:01;;;;;;;1.30;0.73;;;7.20;50.60;;;;;;5035972;28;20235;-49
2021/12/05 01:21:29;;;;;;;1.83;1.15;;;7.10;50.70;;;;;;5035899;28;20204;-49
2021/12/05 01:24:19;;;;;;;1.35;0.70;;;7.20;50.70;;;;;;5018715;28;20173;-49
2021/12/05 01:27:03;;;;;;;1.30;1.00;;;7.20;50.70;;;;;;5004650;28;20263;-49
2021/12/05 01:35:03;;;;;;;1.70;1.35;;;7.30;50.60;;;;;;5004849;28;20150;-50
2021/12/05 01:51:43;;;;;;;1.20;0.75;;;7.50;50.10;;;;;;5002223;28;20170;-49
2021/12/05 01:59:27;;;;;;;2.58;1.23;;;7.60;49.80;;;;;;5019148;28;20224;-49
2021/12/05 02:38:31;;;;;;;1.20;0.68;;;7.90;51.60;;;;;;5040353;28;20211;-49
2021/12/05 02:43:34;;;;;;;3.53;1.35;;;8.00;51.60;;;;;;5040251;28;20180;-49
2021/12/05 02:46:04;;;;;;;1.20;0.52;;;8.10;51.50;;;;;;5024521;28;20172;-49
2021/12/05 02:48:35;;;;;;;1.30;0.80;;;8.10;51.40;;;;;;5037202;28;20185;-49
2021/12/05 02:51:09;;;;;;;1.90;1.33;;;8.20;51.10;;;;;;5037481;28;20149;-49
2021/12/05 02:53:46;;;;;;;1.45;0.95;;;8.30;51.00;;;;;;5054473;28;20157;-49
2021/12/05 02:56:16;;;;;;;1.38;0.80;;;8.30;50.80;;;;;;5036941;28;20173;-49
2021/12/05 02:58:49;;;;;;;3.58;1.30;;;8.40;50.60;;;;;;5054524;28;20248;-49
2021/12/05 03:03:58;;;;;;;2.20;1.77;;;8.50;50.30;;;;;;5043045;28;20554;-49
2021/12/05 03:06:31;;;;;;;1.50;1.05;;;8.50;50.30;;;;;;5041058;28;20595;-49
2021/12/05 03:09:05;;;;;;;7.57;1.40;;;8.50;50.20;;;;;;5041560;28;20248;-49
2021/12/05 03:11:33;;;;;;;1.63;1.10;;;8.50;50.10;;;;;;5041011;28;20166;-49
2021/12/05 03:14:01;;;;;;;2.72;1.35;;;8.50;50.80;;;;;;5043241;28;20603;-49
2021/12/05 03:16:31;;;;;;;1.98;1.77;;;8.60;50.10;;;;;;5038253;28;20193;-49
2021/12/05 03:18:58;;;;;;;1.10;0.60;;;8.60;50.00;;;;;;5038183;28;20256;-49
2021/12/05 03:21:27;;;;;;;1.35;0.68;;;8.60;50.00;;;;;;5020967;28;20170;-49
2021/12/05 03:23:55;;;;;;;1.65;1.00;;;8.60;50.00;;;;;;5045643;28;20169;-49
2021/12/05 03:26:29;;;;;;;1.40;1.15;;;8.50;50.20;;;;;;5057925;28;20177;-49
2021/12/05 03:28:57;;;;;;;1.95;1.25;;;8.50;50.50;;;;;;5040675;28;20162;-49
2021/12/05 03:31:27;;;;;;;1.42;1.08;;;8.50;50.50;;;;;;5057899;28;20157;-49
2021/12/05 03:33:55;;;;;;;1.08;0.40;;;8.40;50.40;;;;;;5032364;28;20477;-49
2021/12/05 03:36:23;;;;;;;1.50;0.65;;;8.50;50.40;;;;;;5020658;28;20286;-49
2021/12/05 03:38:50;;;;;;;1.95;1.15;;;8.50;50.60;;;;;;5020632;28;20508;-49
2021/12/05 03:41:19;;;;;;;1.50;1.10;;;8.50;50.40;;;;;;5046422;28;20274;-49
2021/12/05 03:43:50;;;;;;;1.20;0.63;;;8.50;50.40;;;;;;5056837;28;20555;-49
2021/12/05 03:46:18;;;;;;;1.38;0.95;;;8.50;50.50;;;;;;5040814;28;20585;-49
2021/12/05 03:48:50;;;;;;;1.77;1.00;;;8.40;50.70;;;;;;5057603;28;20196;-49
2021/12/05 03:51:19;;;;;;;1.20;0.68;;;8.30;51.00;;;;;;5056681;28;20551;-49
2021/12/05 03:53:47;;;;;;;1.20;0.50;;;8.30;51.10;;;;;;5057498;28;20633;-49
2021/12/05 03:56:16;;;;;;;2.33;1.05;;;8.40;50.90;;;;;;5057477;28;20189;-49
2021/12/05 03:58:44;;;;;;;1.50;1.02;;;8.50;50.80;;;;;;5056458;28;20566;-49
2021/12/05 04:01:14;;;;;;;1.90;1.80;;;8.50;50.40;;;;;;5056589;28;20587;-49
2021/12/05 04:03:43;;;;;;;1.30;0.90;;;8.50;50.40;;;;;;5057360;28;20675;-49
2021/12/05 04:06:13;;;;;;;1.98;1.05;;;8.50;50.70;;;;;;5056482;28;20218;-49
2021/12/05 04:08:41;;;;;;;1.52;0.80;;;8.50;50.40;;;;;;5056150;28;20206;-49
2021/12/05 04:11:22;;;;;;;2.45;1.23;;;8.40;50.70;;;;;;5057182;28;20164;-49
2021/12/05 04:13:50;;;;;;;1.30;0.90;;;8.40;50.60;;;;;;5057244;28;20160;-49
2021/12/05 04:16:18;;;;;;;3.60;0.85;;;8.50;50.40;;;;;;5057054;28;20554;-49
2021/12/05 04:18:47;;;;;;;2.80;1.00;;;8.60;50.10;;;;;;5056991;28;20197;-49
2021/12/05 04:21:17;;;;;;;1.90;1.35;;;8.70;49.90;;;;;;5057030;28;20169;-49
2021/12/05 04:23:46;;;;;;;1.23;0.55;;;8.70;49.60;;;;;;5056051;28;20194;-50
2021/12/05 04:26:13;;;;;;;1.40;0.60;;;8.70;49.50;;;;;;5039786;28;20193;-50
2021/12/05 04:28:41;;;;;;;1.10;0.63;;;8.80;49.20;;;;;;5056898;28;20518;-50
2021/12/05 04:31:09;;;;;;;3.03;0.80;;;8.80;49.10;;;;;;5039604;28;20228;-49
2021/12/05 04:33:40;;;;;;;3.63;1.30;;;8.90;48.70;;;;;;5056772;28;20191;-49
2021/12/05 04:36:08;;;;;;;1.83;0.65;;;8.90;48.90;;;;;;5055789;28;20162;-49
2021/12/05 04:38:36;;;;;;;1.95;1.75;;;8.90;48.80;;;;;;5056669;28;20173;-49
2021/12/05 04:41:05;;;;;;;2.10;0.73;;;8.80;48.50;;;;;;5055506;28;20353;-50
2021/12/05 04:43:37;;;;;;;1.10;0.40;;;8.80;48.70;;;;;;5022878;28;20561;-49
2021/12/05 04:46:14;;;;;;;1.52;0.63;;;8.80;48.60;;;;;;5058047;28;20177;-49
2021/12/05 04:48:43;;;;;;;1.90;0.75;;;8.90;48.50;;;;;;5075774;28;20344;-50
2021/12/05 04:51:11;;;;;;;1.13;0.50;;;8.90;48.20;;;;;;5076473;28;20191;-49
2021/12/05 04:53:39;;;;;;;1.90;0.95;;;9.00;48.20;;;;;;5075611;28;20168;-49
2021/12/05 04:56:07;;;;;;;1.63;0.93;;;9.00;48.10;;;;;;5075465;28;20162;-50
2021/12/05 04:58:34;;;;;;;1.85;0.60;;;9.00;47.90;;;;;;5075356;28;20180;-49
2021/12/05 05:01:04;;;;;;;1.88;1.45;;;9.00;47.80;;;;;;5075801;28;20165;-49
2021/12/05 05:03:34;;;;;;;1.30;0.70;;;9.00;47.90;;;;;;5059163;28;20613;-49
2021/12/05 05:06:12;;;;;;;1.10;0.40;;;9.00;47.90;;;;;;5076282;28;20198;-49
2021/12/05 05:08:41;;;;;;;1.23;0.73;;;9.10;48.00;;;;;;5075094;28;20216;-49
2021/12/05 05:11:11;;;;;;;1.10;0.50;;;9.00;47.80;;;;;;5075925;28;20617;-49
2021/12/05 05:13:39;;;;;;;1.20;0.68;;;9.00;47.80;;;;;;5076031;28;20230;-49
2021/12/05 05:16:07;;;;;;;1.48;0.80;;;9.00;48.00;;;;;;5075166;28;20167;-49
2021/12/05 05:18:44;;;;;;;1.20;0.70;;;8.90;47.30;;;;;;5075049;28;20192;-49
2021/12/05 05:24:09;;;;;;;1.67;0.70;;;8.90;47.80;;;;;;5075048;28;20175;-49
2021/12/05 05:27:12;;;;;;;2.58;1.25;;;9.00;47.70;;;;;;5074296;28;20515;-49
2021/12/05 05:40:57;;;;;;;1.10;0.50;;;8.90;47.00;;;;;;5072770;28;20172;-49
2021/12/05 05:46:06;;;;;;;3.17;2.28;;;8.90;46.80;;;;;;5055411;28;20171;-49
2021/12/05 05:48:59;;;;;;;1.40;1.02;;;8.90;46.70;;;;;;5055086;28;20699;-49
2021/12/05 05:51:26;;;;;;;2.70;1.63;;;8.90;46.00;;;;;;5041588;28;20267;-49
2021/12/05 05:53:54;;;;;;;1.85;0.88;;;8.90;46.90;;;;;;5055303;28;20166;-49
2021/12/05 05:56:26;;;;;;;1.23;0.63;;;8.90;46.40;;;;;;5055235;28;20174;-49
2021/12/05 05:59:00;;;;;;;1.23;0.50;;;8.80;46.20;;;;;;5054967;28;20516;-49
2021/12/05 06:01:55;;;;;;;1.00;0.30;;;8.80;46.20;;;;;;5037435;28;20488;-49
2021/12/05 06:04:17;;;;;;;1.48;0.60;;;8.90;46.10;;;;;;5025926;28;20180;-49
2021/12/05 06:06:45;;;;;;;1.00;0.40;;;8.90;46.50;;;;;;5037838;28;20554;-49
2021/12/05 06:09:12;;;;;;;1.10;0.40;;;8.90;46.30;;;;;;5054944;28;20161;-49
2021/12/05 06:11:40;;;;;;;7.00;1.63;;;8.80;46.10;;;;;;5055135;28;20503;-49
2021/12/05 06:14:07;;;;;;;1.40;0.60;;;8.80;45.80;;;;;;5032182;28;20187;-49
2021/12/05 06:16:35;;;;;;;2.63;1.17;;;8.80;46.10;;;;;;5017884;28;20261;-49
2021/12/05 06:19:03;;;;;;;1.55;0.77;;;8.80;46.00;;;;;;5034955;28;20166;-49
2021/12/05 06:21:30;;;;;;;1.80;1.30;;;8.90;45.80;;;;;;5035027;28;20161;-49
2021/12/05 06:23:57;;;;;;;1.10;0.60;;;8.90;46.00;;;;;;5017455;28;20610;-49
2021/12/05 06:26:25;;;;;;;1.95;1.08;;;8.90;45.80;;;;;;5001636;28;20162;-49
2021/12/05 06:31:56;;;;;;;1.85;1.10;;;8.90;45.70;;;;;;5006847;28;20173;-49
2021/12/05 06:47:47;;;;;;;1.63;0.90;;;8.80;45.60;;;;;;5054533;28;20243;-49
2021/12/05 06:50:14;;;;;;;1.20;0.40;;;8.90;45.60;;;;;;5054497;28;20171;-49
2021/12/05 06:52:43;;;;;;;10.38;1.25;;;8.80;45.30;;;;;;5054604;28;20172;-49
2021/12/05 06:55:11;;;;;;;1.58;0.77;;;8.80;45.50;;;;;;5053589;28;20169;-49
2021/12/05 06:57:38;;;;;;;3.25;1.85;;;8.90;45.20;;;;;;5053711;28;20164;-49
2021/12/05 07:00:16;;;;;;;1.60;1.00;;;8.80;44.60;;;;;;5054455;28;20588;-49
2021/12/05 07:02:44;;;;;;;2.30;1.02;;;8.70;45.30;;;;;;5054463;28;20153;-49
2021/12/05 07:05:35;;;;;;;3.63;1.02;;;8.80;45.40;;;;;;5054397;28;20189;-49
2021/12/05 07:08:02;;;;;;;1.30;0.88;;;8.80;45.30;;;;;;5054185;28;20551;-49
2021/12/05 07:10:33;;;;;;;1.73;0.90;;;8.80;45.20;;;;;;5036979;28;20587;-49
2021/12/05 07:15:52;;;;;;;1.30;0.60;;;8.90;45.30;;;;;;5054677;28;20269;-49
2021/12/05 07:23:58;;;;;;;1.45;0.73;;;8.80;45.00;;;;;;5053455;28;20494;-49
2021/12/05 07:26:51;;;;;;;1.10;0.40;;;8.80;44.90;;;;;;5053211;28;20514;-49
2021/12/05 07:40:26;;;;;;;1.60;0.73;;;8.70;44.60;;;;;;5053516;28;20187;-51
2021/12/05 07:42:59;;;;;;;1.50;1.02;;;8.70;44.50;;;;;;5054136;28;20308;-49
2021/12/05 07:45:35;;;;;;;1.17;0.77;;;8.70;44.60;;;;;;5053073;28;20261;-49
2021/12/05 07:48:10;;;;;;;1.10;0.50;;;8.80;44.70;;;;;;5055306;28;20208;-49
2021/12/05 07:50:49;;;;;;;1.30;0.80;;;8.80;44.60;;;;;;5056599;28;20169;-49
2021/12/05 07:53:29;;;;;;;1.40;0.80;;;8.80;44.50;;;;;;5056820;28;20473;-49
2021/12/05 07:56:04;;;;;;;1.20;0.52;;;8.80;44.40;;;;;;5057468;28;20165;-49
2021/12/05 07:58:51;;;;;;;1.42;0.57;;;8.90;44.00;;;;;;5041084;28;20169;-49
2021/12/05 08:15:17;;;;;;;3.83;1.52;;;9.00;44.40;;;;;;5057455;28;20572;-49
2021/12/05 08:17:57;;;;;;;1.50;0.80;;;9.10;44.10;;;;;;5040722;28;20173;-49
2021/12/05 08:20:33;;;;;;;2.55;0.82;;;9.10;44.20;;;;;;5026525;28;20169;-49
2021/12/05 08:23:02;;;;;;;2.65;0.70;;;9.10;44.00;;;;;;5057045;28;20154;-49
2021/12/05 08:25:34;;;;;;;2.38;0.70;;;9.10;43.90;;;;;;5040015;28;20169;-49
2021/12/05 08:28:44;;;;;;;2.45;1.00;;;9.10;44.20;;;;;;5040059;28;20190;-49
2021/12/05 08:31:06;;;;;;;1.95;0.57;;;9.20;44.50;;;;;;5056225;28;20173;-50
2021/12/05 08:36:44;;;;;;;2.03;0.80;;;9.20;43.90;;;;;;5056767;28;20231;-50
2021/12/05 09:21:28;;;;;;;1.88;1.10;;;9.70;43.10;;;;;;4943026;29;20212;-50
2021/12/05 09:26:44;;;;;;;1.63;1.00;;;9.80;43.10;;;;;;4940670;29;20170;-50
2021/12/05 09:52:06;;;;;;;1.88;1.08;;;10.10;41.80;;;;;;5035677;28;20184;-49
2021/12/05 10:03:35;;;;;;;1.10;0.47;;;10.20;41.70;;;;;;5011870;28;20522;-49
2021/12/05 10:11:19;;;;;;;2.13;1.00;;;9.90;40.50;;;;;;5019276;28;20500;-49
2021/12/05 10:16:45;;;;;;;1.38;0.50;;;9.70;40.80;;;;;;5035324;28;20649;-49
2021/12/05 10:36:19;;;;;;;1.10;0.60;;;9.90;40.80;;;;;;5020330;28;20263;-49
2021/12/05 10:38:52;;;;;;;1.42;0.82;;;9.90;40.60;;;;;;5003518;28;20179;-49
2021/12/05 10:44:08;;;;;;;1.25;0.73;;;9.90;41.20;;;;;;5054592;28;20164;-49
2021/12/05 10:46:36;;;;;;;1.58;0.82;;;10.00;41.00;;;;;;5038314;28;20210;-49
2021/12/05 10:49:10;;;;;;;1.60;0.90;;;9.70;40.20;;;;;;5037275;28;20250;-49
2021/12/05 10:51:50;;;;;;;1.33;0.77;;;9.70;41.40;;;;;;5054532;28;20497;-50
2021/12/05 10:54:22;;;;;;;1.05;0.38;;;9.80;41.50;;;;;;5053625;28;20607;-49
2021/12/05 10:56:54;;;;;;;1.98;1.08;;;9.90;40.90;;;;;;5053697;28;20500;-49
2021/12/05 10:59:32;;;;;;;1.00;0.35;;;9.80;40.20;;;;;;5037817;28;20161;-49
2021/12/05 11:02:03;;;;;;;1.58;0.40;;;9.70;40.70;;;;;;5054330;28;20561;-49
2021/12/05 11:04:44;;;;;;;1.40;0.50;;;9.70;41.00;;;;;;5053703;28;20590;-50
2021/12/05 11:07:15;;;;;;;1.10;0.40;;;9.80;41.00;;;;;;5053556;28;20226;-50
2021/12/05 11:09:45;;;;;;;1.20;0.50;;;9.90;40.90;;;;;;5053617;28;20193;-49
2021/12/05 11:12:15;;;;;;;1.20;0.60;;;9.90;41.00;;;;;;5054345;28;20164;-49
2021/12/05 11:14:48;;;;;;;1.55;0.65;;;9.90;40.80;;;;;;5054242;28;20535;-49
2021/12/05 11:17:19;;;;;;;1.10;0.40;;;9.80;40.00;;;;;;5053365;28;20164;-49
2021/12/05 11:20:12;;;;;;;1.00;0.30;;;9.70;40.90;;;;;;5054251;28;20575;-49
2021/12/05 11:22:51;;;;;;;1.73;0.73;;;9.80;41.00;;;;;;5056106;28;20170;-49
2021/12/05 11:25:24;;;;;;;2.40;0.65;;;9.90;41.10;;;;;;5057200;28;20166;-49
2021/12/05 11:27:56;;;;;;;1.10;0.50;;;9.80;40.40;;;;;;5058058;28;20631;-49
2021/12/05 11:30:35;;;;;;;1.42;0.65;;;9.80;40.40;;;;;;5041048;28;20173;-49
2021/12/05 11:33:19;;;;;;;1.10;0.40;;;9.80;41.00;;;;;;5057122;28;20181;-49
2021/12/05 11:35:55;;;;;;;1.20;0.77;;;9.80;41.40;;;;;;5056861;28;20153;-50
2021/12/05 11:38:25;;;;;;;1.45;0.75;;;9.80;40.70;;;;;;5057878;28;20160;-49
2021/12/05 11:41:08;;;;;;;1.00;0.30;;;9.80;40.80;;;;;;5053136;28;20210;-49
2021/12/05 11:43:44;;;;;;;4.65;1.05;;;9.90;40.80;;;;;;5021044;28;20182;-49
2021/12/05 11:46:17;;;;;;;1.15;0.60;;;9.90;40.40;;;;;;5020549;28;20209;-50
2021/12/05 11:48:48;;;;;;;2.90;0.73;;;9.90;39.80;;;;;;5020464;28;20192;-49
2021/12/05 11:51:21;;;;;;;1.00;0.35;;;9.80;40.60;;;;;;5020504;28;20475;-50
2021/12/05 11:53:59;;;;;;;1.27;0.93;;;9.80;40.70;;;;;;5037509;28;20197;-49
2021/12/05 11:56:39;;;;;;;2.03;1.60;;;9.80;40.80;;;;;;5037567;28;20158;-50
2021/12/05 11:59:10;;;;;;;3.15;0.77;;;9.80;39.90;;;;;;5037621;28;20166;-50
2021/12/05 12:01:44;;;;;;;1.25;0.82;;;9.60;41.10;;;;;;5037558;28;20185;-50
2021/12/05 12:04:15;;;;;;;1.35;0.68;;;9.70;41.20;;;;;;5037474;28;20209;-49
2021/12/05 12:06:45;;;;;;;2.17;1.17;;;9.80;41.00;;;;;;5020122;28;20183;-49
2021/12/05 12:09:13;;;;;;;1.40;0.40;;;9.90;41.20;;;;;;5004230;28;20177;-50
2021/12/05 12:11:41;;;;;;;1.00;0.32;;;10.00;40.80;;;;;;5037269;28;20316;-50
2021/12/05 12:14:08;;;;;;;1.45;0.88;;;10.10;40.80;;;;;;5020049;28;20631;-49
2021/12/05 12:16:35;;;;;;;1.85;1.20;;;10.10;40.80;;;;;;5004046;28;20177;-50
2021/12/05 12:19:06;;;;;;;1.10;0.60;;;10.10;40.90;;;;;;5037121;28;20185;-50
2021/12/05 12:21:41;;;;;;;2.47;0.70;;;10.10;40.70;;;;;;5019904;28;20177;-50
2021/12/05 12:24:10;;;;;;;1.20;0.43;;;10.20;40.50;;;;;;5051696;28;20270;-49
2021/12/05 12:26:38;;;;;;;2.67;1.13;;;10.20;40.40;;;;;;5056875;28;20255;-49
2021/12/05 12:29:08;;;;;;;1.30;0.60;;;10.30;40.70;;;;;;5039533;28;20721;-49
2021/12/05 12:31:37;;;;;;;2.33;1.27;;;10.30;40.50;;;;;;5056791;28;20162;-50
2021/12/05 12:34:11;;;;;;;1.30;0.88;;;10.30;40.80;;;;;;5039007;28;20189;-50
2021/12/05 12:36:49;;;;;;;1.80;1.45;;;10.80;39.40;;;;;;5023301;28;20165;-49
2021/12/05 12:39:17;;;;;;;1.85;1.60;;;11.70;40.80;;;;;;5056836;28;20606;-50
2021/12/05 12:42:12;;;;;;;1.67;0.95;;;13.10;37.50;;;;;;5058882;28;20608;-50
2021/12/05 12:45:10;;;;;;;1.80;1.10;;;14.40;37.20;;;;;;5075705;28;20169;-50
2021/12/05 12:47:54;;;;;;;1.58;0.80;;;15.20;33.60;;;;;;5065617;28;20192;-50
2021/12/05 12:50:34;;;;;;;1.40;0.80;;;14.80;31.60;;;;;;5076522;28;20153;-50
2021/12/05 12:53:29;;;;;;;1.85;0.95;;;14.10;32.90;;;;;;5076706;28;20177;-50
2021/12/05 12:56:04;;;;;;;1.40;0.77;;;13.40;33.50;;;;;;5075461;28;20195;-50
2021/12/05 12:58:54;;;;;;;1.35;0.70;;;12.60;35.00;;;;;;5075379;28;20199;-50
2021/12/05 13:01:50;;;;;;;2.70;1.33;;;12.20;34.90;;;;;;5076285;28;20169;-50
2021/12/05 13:15:17;;;;;;;2.50;1.50;;;10.40;38.70;;;;;;5075919;28;20234;-50
2021/12/05 13:17:48;;;;;;;1.50;1.02;;;10.50;39.30;;;;;;5074537;28;20185;-50
2021/12/05 13:20:22;;;;;;;2.17;0.73;;;10.40;39.00;;;;;;5075885;28;20176;-49
2021/12/05 13:23:12;;;;;;;1.20;0.60;;;10.50;39.20;;;;;;5075832;28;20163;-49
2021/12/05 13:26:04;;;;;;;3.50;2.25;;;10.50;39.20;;;;;;5075010;28;20161;-50
2021/12/05 13:28:44;;;;;;;1.20;0.60;;;10.50;39.20;;;;;;5075690;28;20189;-50
2021/12/05 13:31:33;;;;;;;7.13;1.50;;;10.60;39.50;;;;;;5075822;28;20161;-49
2021/12/05 13:34:26;;;;;;;1.55;0.82;;;10.60;39.30;;;;;;5075636;28;20240;-49
2021/12/05 13:36:59;;;;;;;3.17;1.15;;;10.70;39.40;;;;;;5075526;28;20259;-50
2021/12/05 13:39:52;;;;;;;1.38;0.80;;;10.70;39.20;;;;;;5058564;28;20679;-50
2021/12/05 13:42:39;;;;;;;2.90;1.65;;;10.80;39.30;;;;;;5058991;28;20651;-50
2021/12/05 13:45:11;;;;;;;1.90;1.35;;;10.70;39.20;;;;;;5054760;28;20157;-50
2021/12/05 13:47:53;;;;;;;1.80;1.10;;;10.70;39.30;;;;;;5038020;28;20566;-50
2021/12/05 13:50:30;;;;;;;1.30;0.70;;;10.60;39.10;;;;;;5055551;28;20709;-50
2021/12/05 13:53:03;;;;;;;2.20;1.08;;;10.50;39.30;;;;;;5055346;28;20159;-49
2021/12/05 13:56:02;;;;;;;1.40;0.90;;;10.50;39.40;;;;;;5055214;28;20633;-50
2021/12/05 13:58:41;;;;;;;1.23;0.60;;;10.50;39.60;;;;;;5055116;28;20183;-50
2021/12/05 14:01:08;;;;;;;1.85;1.20;;;10.50;39.60;;;;;;5055201;28;20468;-50
2021/12/05 14:03:53;;;;;;;1.50;1.08;;;10.50;39.50;;;;;;5055183;28;20633;-50
2021/12/05 14:06:29;;;;;;;4.50;3.15;;;10.40;39.60;;;;;;5037537;28;20177;-50
2021/12/05 14:09:03;;;;;;;3.83;2.20;;;10.30;39.60;;;;;;5037385;28;20220;-50
2021/12/05 14:11:32;;;;;;;2.83;0.98;;;10.30;39.70;;;;;;5055158;28;20164;-50
2021/12/05 14:14:04;;;;;;;1.67;1.15;;;10.30;39.90;;;;;;5054953;28;20606;-50
2021/12/05 14:16:40;;;;;;;7.63;1.88;;;10.30;39.80;;;;;;5055007;28;20163;-49
2021/12/05 14:19:11;;;;;;;1.55;1.05;;;10.30;39.90;;;;;;5025746;28;20190;-49
2021/12/05 14:21:48;;;;;;;1.40;0.50;;;10.30;40.00;;;;;;5018153;28;20255;-50
2021/12/05 14:24:18;;;;;;;2.15;0.85;;;10.30;40.00;;;;;;5034972;28;20184;-50
2021/12/05 14:26:52;;;;;;;1.30;0.90;;;10.40;40.00;;;;;;5018076;28;20240;-50
2021/12/05 14:29:26;;;;;;;1.80;1.10;;;10.30;39.80;;;;;;5002127;28;20173;-50
2021/12/05 14:32:21;;;;;;;2.95;1.00;;;10.30;39.90;;;;;;5034936;28;20158;-50
2021/12/05 14:34:52;;;;;;;10.25;1.00;;;10.30;40.00;;;;;;5017427;28;20696;-49
2021/12/05 14:37:22;;;;;;;1.20;0.52;;;10.30;40.10;;;;;;5001883;28;20462;-49
2021/12/05 14:39:52;;;;;;;2.28;2.08;;;10.30;40.20;;;;;;5034865;28;20190;-49
2021/12/05 14:42:24;;;;;;;1.70;0.88;;;10.30;40.40;;;;;;5046093;28;20221;-49
2021/12/05 14:44:56;;;;;;;2.10;1.13;;;10.20;40.40;;;;;;5037807;28;20311;-49
2021/12/05 14:47:26;;;;;;;1.70;1.20;;;10.20;40.10;;;;;;5054604;28;20195;-49
2021/12/05 14:49:59;;;;;;;3.85;1.95;;;10.10;40.30;;;;;;5037782;28;20509;-49
2021/12/05 14:52:35;;;;;;;2.05;1.60;;;10.10;40.40;;;;;;5054473;28;20587;-49
2021/12/05 14:55:06;;;;;;;2.65;2.08;;;10.10;41.20;;;;;;5037065;28;20219;-50
2021/12/05 14:57:45;;;;;;;11.63;5.05;;;10.10;40.50;;;;;;5058099;28;20186;-49
2021/12/05 15:00:19;;;;;;;6.95;6.20;;;10.00;41.20;;;;;;5062635;28;20632;-49
2021/12/05 15:02:47;;;;;;;2.65;1.77;;;10.00;40.50;;;;;;5078345;28;20197;-49
2021/12/05 15:05:18;;;;;;;1.83;1.23;;;10.00;40.50;;;;;;5078354;28;20246;-49
2021/12/05 15:07:46;;;;;;;1.63;1.17;;;9.90;40.60;;;;;;5061253;28;20260;-49
2021/12/05 15:10:21;;;;;;;2.53;1.63;;;9.90;40.70;;;;;;5078647;28;20256;-49
2021/12/05 15:12:54;;;;;;;2.33;1.30;;;9.90;40.70;;;;;;5078461;28;20330;-49
2021/12/05 15:15:24;;;;;;;2.35;1.20;;;9.90;40.70;;;;;;5077268;28;20551;-49
2021/12/05 15:17:53;;;;;;;6.10;2.28;;;9.90;40.70;;;;;;5078428;28;20165;-49
2021/12/05 15:20:26;;;;;;;2.50;2.00;;;9.80;40.60;;;;;;5077121;28;20176;-49
2021/12/05 15:23:01;;;;;;;2.65;2.00;;;9.80;40.60;;;;;;5078036;28;20167;-49
2021/12/05 15:25:30;;;;;;;4.47;2.60;;;9.80;40.70;;;;;;5078192;28;20503;-49
2021/12/05 15:27:58;;;;;;;2.85;2.00;;;9.70;40.80;;;;;;5076859;28;20184;-49
2021/12/05 15:30:31;;;;;;;2.30;2.05;;;9.70;40.90;;;;;;5060536;28;20168;-49
2021/12/05 15:33:07;;;;;;;1.77;1.55;;;9.70;40.90;;;;;;5077120;28;20156;-49
2021/12/05 15:35:35;;;;;;;3.05;2.38;;;9.60;40.80;;;;;;5076870;28;20149;-49
2021/12/05 15:38:21;;;;;;;1.98;1.60;;;9.60;40.90;;;;;;5076799;28;20169;-49
2021/12/05 15:40:51;;;;;;;1.60;1.13;;;9.60;40.90;;;;;;5074042;28;20225;-49
2021/12/05 15:43:22;;;;;;;1.60;1.30;;;9.60;41.00;;;;;;5057729;28;20176;-49
2021/12/05 15:45:54;;;;;;;2.45;2.05;;;9.50;41.10;;;;;;5057727;28;20149;-49
2021/12/05 15:48:33;;;;;;;2.45;1.48;;;9.50;41.20;;;;;;5023996;28;20221;-49
2021/12/05 15:51:02;;;;;;;1.92;1.42;;;9.40;41.10;;;;;;5040355;28;20225;-49
2021/12/05 15:53:34;;;;;;;2.78;1.15;;;9.40;41.10;;;;;;5039995;28;20158;-49
2021/12/05 15:56:10;;;;;;;2.22;1.73;;;9.40;41.30;;;;;;5040508;28;20156;-49
2021/12/05 15:58:51;;;;;;;2.83;2.47;;;9.40;41.30;;;;;;5057466;28;20195;-49
2021/12/05 16:01:24;;;;;;;2.53;1.80;;;9.40;41.90;;;;;;5008546;28;20168;-50
2021/12/05 16:03:54;;;;;;;3.67;1.90;;;9.30;41.30;;;;;;5057259;28;20176;-49
2021/12/05 16:06:38;;;;;;;2.95;1.60;;;9.30;41.40;;;;;;5039828;28;20164;-49
2021/12/05 16:09:18;;;;;;;2.67;1.45;;;9.30;41.40;;;;;;5040227;28;20215;-49
2021/12/05 16:11:48;;;;;;;6.60;3.92;;;9.20;41.30;;;;;;5057108;28;20149;-49
2021/12/05 16:14:36;;;;;;;4.97;2.50;;;9.20;41.40;;;;;;5057199;28;20679;-49
2021/12/05 16:17:23;;;;;;;2.42;1.38;;;9.20;41.40;;;;;;5057188;28;20463;-49
2021/12/05 16:20:15;;;;;;;2.25;1.55;;;9.10;41.50;;;;;;5039716;28;20632;-49
2021/12/05 16:23:13;;;;;;;3.20;1.63;;;9.10;41.50;;;;;;5023801;28;20182;-49
2021/12/05 16:26:17;;;;;;;2.38;2.15;;;9.10;41.70;;;;;;5057043;28;20172;-48
2021/12/05 16:28:49;;;;;;;2.03;1.40;;;9.10;41.60;;;;;;5056736;28;20199;-49
2021/12/05 16:31:18;;;;;;;2.75;1.50;;;9.00;41.60;;;;;;5039904;28;20167;-49
2021/12/05 16:33:56;;;;;;;2.10;1.55;;;9.00;41.70;;;;;;5039259;28;20196;-49
2021/12/05 16:36:34;;;;;;;3.47;2.08;;;9.00;42.60;;;;;;5024184;28;20228;-49
2021/12/05 16:39:16;;;;;;;4.90;1.73;;;9.00;41.90;;;;;;5039234;28;20471;-49
2021/12/05 16:41:48;;;;;;;3.45;2.40;;;9.00;42.10;;;;;;5042202;28;20253;-49
2021/12/05 16:44:24;;;;;;;7.13;2.50;;;9.00;42.20;;;;;;5075654;28;20298;-49
2021/12/05 16:47:01;;;;;;;6.43;5.20;;;9.00;42.20;;;;;;5075872;28;20180;-49
2021/12/05 16:49:40;;;;;;;3.85;2.97;;;9.00;42.30;;;;;;5060083;28;20183;-49
2021/12/05 16:52:15;;;;;;;4.88;2.22;;;9.00;42.40;;;;;;5075464;28;20213;-49
2021/12/05 16:55:03;;;;;;;3.92;2.72;;;9.00;42.40;;;;;;5075534;28;20549;-49
2021/12/05 16:57:43;;;;;;;5.15;3.13;;;8.90;42.60;;;;;;5075538;28;20202;-49
2021/12/05 17:00:20;;;;;;;2.70;2.42;;;8.90;42.60;;;;;;5076129;28;20178;-49
2021/12/05 17:02:53;;;;;;;5.25;2.63;;;8.90;42.80;;;;;;5076422;28;20163;-49
2021/12/05 17:05:37;;;;;;;3.65;2.13;;;8.90;42.80;;;;;;5075166;28;20177;-49
2021/12/05 17:08:20;;;;;;;7.93;3.58;;;8.90;42.80;;;;;;5059716;28;20194;-49
2021/12/05 17:11:03;;;;;;;4.60;2.58;;;8.90;42.80;;;;;;5076265;28;20164;-49
2021/12/05 17:13:43;;;;;;;6.20;2.90;;;8.90;42.70;;;;;;5075133;28;20152;-49
2021/12/05 17:16:13;;;;;;;13.45;8.25;;;9.00;42.70;;;;;;5075906;28;20247;-49
2021/12/05 17:18:58;;;;;;;3.70;3.40;;;8.90;42.70;;;;;;5075721;28;20551;-49
2021/12/05 17:21:38;;;;;;;5.60;2.47;;;9.00;42.80;;;;;;5075400;28;20251;-49
2021/12/05 17:24:18;;;;;;;2.17;1.08;;;9.00;42.70;;;;;;5075992;28;20604;-49
2021/12/05 17:26:59;;;;;;;5.70;2.22;;;9.00;42.70;;;;;;5075959;28;20175;-49
2021/12/05 17:29:41;;;;;;;3.05;2.75;;;9.00;42.70;;;;;;5075836;28;20238;-48
2021/12/05 17:32:16;;;;;;;2.90;2.60;;;9.00;42.70;;;;;;5059290;28;20199;-49
2021/12/05 17:34:48;;;;;;;3.28;1.92;;;9.00;42.60;;;;;;5074759;28;20286;-48
2021/12/05 17:37:24;;;;;;;3.97;1.92;;;9.00;42.60;;;;;;5075522;28;20176;-49
2021/12/05 17:39:53;;;;;;;2.58;1.80;;;9.00;42.60;;;;;;5074886;28;20162;-49
2021/12/05 17:42:27;;;;;;;3.72;2.65;;;9.00;42.50;;;;;;5074256;28;20213;-49
2021/12/05 17:44:58;;;;;;;2.95;2.75;;;9.10;42.60;;;;;;5075346;28;20230;-49
2021/12/05 17:47:27;;;;;;;2.47;2.28;;;9.00;42.50;;;;;;5074622;28;20203;-49
2021/12/05 17:49:57;;;;;;;1.75;1.38;;;9.00;42.50;;;;;;5075150;28;20187;-49
2021/12/05 17:52:26;;;;;;;4.40;3.20;;;9.00;42.50;;;;;;5075455;28;20237;-49
2021/12/05 17:55:05;;;;;;;2.92;2.35;;;9.00;42.60;;;;;;5074513;28;20270;-49
2021/12/05 17:57:42;;;;;;;2.13;1.77;;;8.90;42.60;;;;;;5075266;28;20170;-49
2021/12/05 18:03:08;;;;;;;4.78;2.13;;;8.90;42.70;;;;;;5055582;28;20256;-49
2021/12/05 18:05:44;;;;;;;4.85;4.38;;;8.90;42.80;;;;;;5074271;28;20235;-49
2021/12/05 18:08:18;;;;;;;1.95;1.85;;;8.90;42.70;;;;;;5074049;28;20200;-49
2021/12/05 18:10:53;;;;;;;5.45;2.92;;;8.90;42.80;;;;;;5073981;28;20165;-49
2021/12/05 18:13:24;;;;;;;4.18;2.78;;;8.90;42.80;;;;;;5041629;28;20166;-49
2021/12/05 18:16:04;;;;;;;9.32;2.80;;;8.90;42.90;;;;;;5074267;28;20173;-49
2021/12/05 18:18:35;;;;;;;3.58;3.10;;;8.80;42.80;;;;;;5058821;28;20183;-49
2021/12/05 18:21:04;;;;;;;4.40;2.25;;;8.80;43.00;;;;;;5073916;28;20155;-49
2021/12/05 18:23:32;;;;;;;3.28;2.03;;;8.70;43.20;;;;;;5057615;28;20169;-49
2021/12/05 18:26:00;;;;;;;2.00;1.60;;;8.70;43.30;;;;;;5073930;28;20178;-49
2021/12/05 18:28:29;;;;;;;4.13;1.92;;;8.70;43.20;;;;;;5073763;28;20198;-49
2021/12/05 18:30:58;;;;;;;2.10;1.88;;;8.60;43.30;;;;;;5074085;28;20340;-49
2021/12/05 18:33:29;;;;;;;7.97;2.03;;;8.60;43.40;;;;;;5062550;28;20192;-49
2021/12/05 18:35:57;;;;;;;5.05;2.42;;;8.60;43.40;;;;;;5053777;28;20171;-49
2021/12/05 18:38:25;;;;;;;3.22;2.25;;;8.60;43.50;;;;;;5053736;28;20318;-49